Time;durP1;ratioP1;P1;durP2;ratioP2;P2;SDS_P1;SDS_P2;PMS_P1;PMS_P2;Temp;Humidity;BMP_temperature;BMP_pressure;BME280_temperature;BME280_humidity;BME280_pressure;Samples;Min_cycle;Max_cycle;Signal;HPM_P1;HPM_P2
2022/12/19 00:04:01;;;;;;;5.05;2.83;;;;;;;18.20;32.07;101643.25;16139672;19;129824;-54
2022/12/19 00:09:28;;;;;;;3.35;2.80;;;;;;;18.19;32.41;101649.03;16132947;19;131110;-54
2022/12/19 00:14:52;;;;;;;4.45;2.83;;;;;;;18.14;32.19;101628.38;16135759;19;129421;-52
2022/12/19 00:20:15;;;;;;;4.32;2.40;;;;;;;18.12;32.27;101630.53;16133735;19;130625;-50
2022/12/19 00:25:39;;;;;;;4.30;2.53;;;;;;;18.09;32.42;101627.38;16133969;19;130932;-51
2022/12/19 00:31:03;;;;;;;4.18;2.50;;;;;;;18.04;32.48;101622.50;16134467;19;129903;-52
2022/12/19 00:36:30;;;;;;;3.92;2.55;;;;;;;18.02;32.15;101619.13;16131630;19;130476;-53
2022/12/19 00:41:52;;;;;;;3.65;2.17;;;;;;;17.98;32.43;101607.66;16136855;19;130331;-50
2022/12/19 00:47:13;;;;;;;3.33;2.20;;;;;;;17.96;32.27;101598.72;16134966;19;133190;-53
2022/12/19 00:52:35;;;;;;;4.53;2.40;;;;;;;17.96;32.23;101597.88;16134305;19;129563;-52
2022/12/19 00:57:57;;;;;;;4.38;2.33;;;;;;;17.91;32.25;101601.31;16132146;19;129417;-49
2022/12/19 01:03:21;;;;;;;3.47;2.30;;;;;;;17.88;32.17;101589.84;16132543;19;128781;-51
2022/12/19 01:08:43;;;;;;;3.17;2.03;;;;;;;17.84;32.26;101593.06;16131278;19;129427;-52
2022/12/19 01:14:05;;;;;;;2.92;2.05;;;;;;;17.82;32.47;101605.41;16130742;19;130124;-49
2022/12/19 01:19:26;;;;;;;3.85;2.10;;;;;;;17.79;32.36;101592.88;16127916;19;129450;-49
2022/12/19 01:24:48;;;;;;;2.58;2.10;;;;;;;17.78;32.37;101576.53;16129090;19;129553;-53
2022/12/19 01:30:11;;;;;;;2.40;1.83;;;;;;;17.76;32.40;101573.13;16131653;19;130267;-54
2022/12/19 01:35:32;;;;;;;2.33;1.55;;;;;;;17.73;32.82;101565.25;16126391;19;130588;-50
2022/12/19 01:40:56;;;;;;;2.90;1.70;;;;;;;17.71;32.66;101561.88;16128461;19;130905;-49
2022/12/19 01:46:33;;;;;;;2.03;1.55;;;;;;;17.69;32.84;101556.56;16124108;19;129434;-50
2022/12/19 01:51:58;;;;;;;1.92;1.70;;;;;;;17.66;32.51;101557.84;16124032;19;130704;-53
2022/12/19 01:57:20;;;;;;;2.37;1.73;;;;;;;17.63;32.93;101554.69;16126071;19;129633;-49
2022/12/19 02:02:54;;;;;;;1.80;1.35;;;;;;;17.63;33.08;101543.63;16126031;19;129539;-52
2022/12/19 02:08:17;;;;;;;1.92;1.55;;;;;;;17.59;32.97;101542.41;16124087;19;129379;-54
2022/12/19 02:13:39;;;;;;;2.28;1.60;;;;;;;17.56;32.77;101531.75;16121823;19;131521;-50
2022/12/19 02:19:37;;;;;;;1.73;1.60;;;;;;;17.56;32.79;101520.69;16121661;19;131100;-52
2022/12/19 02:25:36;;;;;;;4.10;1.40;;;;;;;17.53;32.64;101517.28;16121543;19;130185;-51
2022/12/19 02:31:06;;;;;;;1.48;1.38;;;;;;;17.49;32.99;101513.25;16135448;19;129243;-52
2022/12/19 02:36:45;;;;;;;1.90;1.40;;;;;;;17.47;32.66;101504.34;16142058;19;129412;-51
2022/12/19 02:42:12;;;;;;;2.45;1.25;;;;;;;17.47;32.96;101501.59;16137692;19;129974;-50
2022/12/19 02:47:36;;;;;;;1.90;1.42;;;;;;;17.44;33.09;101502.03;16139125;19;129468;-48
2022/12/19 02:52:58;;;;;;;1.88;1.33;;;;;;;17.43;33.15;101499.47;16139220;19;131182;-51
2022/12/19 02:58:44;;;;;;;1.35;1.10;;;;;;;17.44;33.11;101495.63;16135315;19;129952;-53
2022/12/19 03:04:24;;;;;;;1.42;1.10;;;;;;;17.42;33.22;101478.41;16136303;19;129380;-52
2022/12/19 03:10:11;;;;;;;1.60;1.20;;;;;;;17.38;32.74;101472.47;16134853;19;129601;-55
2022/12/19 03:15:33;;;;;;;1.05;0.93;;;;;;;17.36;33.01;101482.91;16134470;19;129008;-54
2022/12/19 03:21:30;;;;;;;1.30;1.17;;;;;;;17.36;33.13;101475.50;16135832;19;130741;-55
2022/12/19 03:27:03;;;;;;;1.60;1.20;;;;;;;17.34;33.17;101479.56;16135479;19;129462;-52
2022/12/19 03:32:27;;;;;;;1.42;1.20;;;;;;;17.31;33.01;101463.41;16132876;19;129250;-49
2022/12/19 03:37:52;;;;;;;1.90;1.10;;;;;;;17.30;33.35;101478.31;16133516;19;131281;-51
2022/12/19 03:43:15;;;;;;;1.13;1.00;;;;;;;17.28;33.02;101475.78;16131772;19;134027;-51
2022/12/19 03:48:50;;;;;;;1.30;1.00;;;;;;;17.29;32.81;101482.13;16135374;19;129461;-53
2022/12/19 03:54:26;;;;;;;0.88;0.80;;;;;;;17.27;33.27;101484.28;16132832;19;129591;-53
2022/12/19 03:59:54;;;;;;;1.17;1.08;;;;;;;17.24;33.08;101480.88;16131001;19;129804;-51
2022/12/19 04:05:24;;;;;;;0.98;0.88;;;;;;;17.25;32.87;101462.38;16131139;19;129857;-48
2022/12/19 04:10:51;;;;;;;1.27;1.00;;;;;;;17.23;33.05;101467.28;16134712;19;129686;-53
2022/12/19 04:16:38;;;;;;;0.82;0.80;;;;;;;17.22;33.38;101463.69;16132546;19;131096;-52
2022/12/19 04:22:06;;;;;;;1.05;0.90;;;;;;;17.20;33.27;101456.66;16131317;19;129857;-54
2022/12/19 04:27:34;;;;;;;1.17;1.08;;;;;;;17.19;33.16;101460.50;16150512;19;129103;-55
2022/12/19 04:32:56;;;;;;;1.23;1.00;;;;;;;17.17;33.19;101463.50;16205282;19;128988;-54
2022/12/19 04:38:20;;;;;;;1.10;0.95;;;;;;;17.16;33.06;101456.28;16206762;19;128999;-55
2022/12/19 04:43:41;;;;;;;1.02;0.90;;;;;;;17.15;32.94;101476.69;16205286;19;129299;-55
2022/12/19 04:49:03;;;;;;;0.98;0.70;;;;;;;17.14;33.17;101469.47;16208088;19;129072;-54
2022/12/19 04:54:25;;;;;;;1.25;0.88;;;;;;;17.14;33.25;101458.41;16204648;19;129464;-55
2022/12/19 04:59:47;;;;;;;0.80;0.80;;;;;;;17.12;33.04;101471.59;16201870;19;129154;-56
2022/12/19 05:05:09;;;;;;;1.75;1.05;;;;;;;17.12;32.90;101466.06;16200107;19;128582;-53
2022/12/19 05:10:31;;;;;;;0.90;0.70;;;;;;;17.10;33.37;101456.31;16201994;19;129074;-53
2022/12/19 05:16:07;;;;;;;1.63;0.98;;;;;;;17.11;33.33;101446.94;16208622;19;128706;-55
2022/12/19 05:21:29;;;;;;;1.27;0.90;;;;;;;17.08;32.91;101448.25;16200080;19;129051;-54
2022/12/19 05:26:50;;;;;;;0.95;0.80;;;;;;;17.06;33.01;101433.81;16198335;19;129163;-56
2022/12/19 05:32:12;;;;;;;1.00;0.90;;;;;;;17.05;33.07;101438.47;16195700;19;128978;-54
2022/12/19 05:37:34;;;;;;;1.08;0.80;;;;;;;17.05;33.23;101456.97;16199406;19;131132;-55
2022/12/19 05:42:56;;;;;;;0.80;0.70;;;;;;;17.04;33.07;101464.44;16196627;19;128910;-56
2022/12/19 05:48:18;;;;;;;1.08;0.60;;;;;;;17.03;33.53;101448.06;16199580;19;129079;-52
2022/12/19 05:53:40;;;;;;;1.02;0.73;;;;;;;17.03;33.45;101467.41;16201824;19;128987;-53
2022/12/19 05:59:02;;;;;;;1.33;0.90;;;;;;;17.00;33.38;101462.31;16205298;19;128835;-53
2022/12/19 06:04:24;;;;;;;0.93;0.77;;;;;;;17.00;33.61;101473.38;16199463;19;129282;-55
2022/12/19 06:09:46;;;;;;;1.08;0.82;;;;;;;17.00;33.31;101467.84;16197865;19;129540;-56
2022/12/19 06:15:08;;;;;;;1.05;0.70;;;;;;;17.00;33.16;101476.16;16193599;19;129260;-54
2022/12/19 06:20:30;;;;;;;0.65;0.65;;;;;;;16.99;33.35;101479.97;16195540;19;130361;-56
2022/12/19 06:25:51;;;;;;;3.83;0.80;;;;;;;17.00;33.25;101478.91;16201906;19;130582;-56
2022/12/19 06:31:14;;;;;;;5.10;1.13;;;;;;;17.00;33.60;101467.84;16199221;19;128689;-56
2022/12/19 06:36:37;;;;;;;4.60;1.10;;;;;;;17.02;33.72;101487.84;16200604;19;129284;-56
2022/12/19 06:47:38;;;;;;;1.52;0.90;;;;;;;17.00;33.57;101492.72;16198245;19;130658;-56
2022/12/19 06:53:00;;;;;;;5.45;1.02;;;;;;;16.99;33.76;101479.97;16198651;19;128670;-57
2022/12/19 06:58:23;;;;;;;6.28;0.95;;;;;;;16.99;33.68;101469.78;16202632;19;129542;-58
2022/12/19 07:03:47;;;;;;;12.85;1.30;;;;;;;16.99;33.89;101482.75;16206583;19;128863;-58
2022/12/19 07:09:09;;;;;;;8.00;1.05;;;;;;;16.99;33.65;101477.22;16206936;19;130042;-58
2022/12/19 07:14:32;;;;;;;7.75;1.52;;;;;;;16.98;33.94;101475.53;16186679;19;130801;-58
2022/12/19 07:19:57;;;;;;;10.07;1.27;;;;;;;16.98;34.04;101468.09;16141074;19;130308;-59
2022/12/19 07:25:18;;;;;;;12.82;1.05;;;;;;;16.96;34.03;101484.03;16137853;19;129623;-58
2022/12/19 07:30:40;;;;;;;7.68;1.08;;;;;;;16.96;34.10;101480.44;16137665;19;129554;-58
2022/12/19 07:36:02;;;;;;;7.20;0.90;;;;;;;16.92;34.20;101475.34;16138369;19;130619;-58
2022/12/19 07:41:23;;;;;;;7.75;1.30;;;;;;;16.92;34.58;101489.16;16137244;19;130565;-58
2022/12/19 07:46:46;;;;;;;6.90;1.50;;;;;;;16.91;34.53;101478.34;16135954;19;129813;-58
2022/12/19 07:52:07;;;;;;;8.48;1.13;;;;;;;16.91;34.68;101478.34;16131997;19;131012;-59
2022/12/19 07:57:29;;;;;;;13.07;1.27;;;;;;;16.90;34.52;101469.19;16134801;19;129786;-58
2022/12/19 08:02:51;;;;;;;5.45;1.05;;;;;;;16.90;34.72;101484.94;16135645;19;129612;-58
2022/12/19 08:08:13;;;;;;;7.32;1.20;;;;;;;16.89;34.32;101484.06;16132865;19;129327;-58
2022/12/19 08:13:35;;;;;;;3.78;0.90;;;;;;;16.90;34.47;101480.25;16135008;19;129664;-59
2022/12/19 08:19:03;;;;;;;4.68;0.98;;;;;;;16.89;34.28;101488.75;16132808;19;129619;-58
2022/12/19 08:24:25;;;;;;;3.35;1.00;;;;;;;16.89;34.74;101497.06;16131460;19;129676;-58
2022/12/19 08:29:47;;;;;;;4.95;1.08;;;;;;;16.88;34.51;101511.94;16129123;19;129860;-58
2022/12/19 08:35:08;;;;;;;5.57;0.88;;;;;;;16.87;34.61;101519.38;16133270;19;130921;-58
2022/12/19 08:40:32;;;;;;;3.40;0.80;;;;;;;16.87;34.79;101530.41;16131689;19;129533;-59
2022/12/19 08:45:54;;;;;;;1.45;0.63;;;;;;;16.87;34.86;101524.91;16137492;19;129676;-58
2022/12/19 08:51:16;;;;;;;4.78;0.93;;;;;;;16.88;34.53;101521.06;16134057;19;129604;-58
2022/12/19 08:56:38;;;;;;;3.65;0.88;;;;;;;16.88;34.49;101526.59;16134882;19;129275;-58
2022/12/19 09:02:08;;;;;;;4.00;0.80;;;;;;;16.88;34.91;101515.53;16134849;19;129792;-58
2022/12/19 09:07:30;;;;;;;2.75;1.00;;;;;;;16.89;34.63;101510.88;16133700;19;129426;-58
2022/12/19 09:12:54;;;;;;;5.88;1.25;;;;;;;16.89;34.98;101514.47;16134688;19;129736;-58
2022/12/19 09:18:18;;;;;;;11.52;1.02;;;;;;;16.89;34.54;101511.72;16132167;19;129620;-58
2022/12/19 09:23:53;;;;;;;4.40;1.00;;;;;;;16.91;34.60;101530.84;16130518;19;129205;-58
2022/12/19 09:29:14;;;;;;;3.67;0.70;;;;;;;16.88;34.97;101534.06;16130653;19;129245;-59
2022/12/19 09:34:41;;;;;;;10.75;1.00;;;;;;;16.89;34.58;101541.28;16135961;19;129287;-57
2022/12/19 09:40:04;;;;;;;2.30;0.77;;;;;;;16.88;35.06;101537.66;16130944;19;129506;-58
2022/12/19 09:46:02;;;;;;;7.68;0.82;;;;;;;16.89;34.60;101544.88;16131329;19;130762;-57
2022/12/19 09:51:37;;;;;;;2.30;0.70;;;;;;;16.88;34.76;101545.94;16130921;19;129395;-56
2022/12/19 09:57:04;;;;;;;1.50;0.80;;;;;;;16.86;35.11;101545.31;16133945;19;132182;-58
2022/12/19 10:02:37;;;;;;;4.60;0.80;;;;;;;16.88;35.09;101548.69;16124803;19;129515;-58
2022/12/19 10:08:00;;;;;;;2.95;0.90;;;;;;;16.86;34.91;101548.06;16127405;19;129328;-58
2022/12/19 10:13:33;;;;;;;4.10;0.80;;;;;;;16.87;35.04;101551.69;16126270;19;128907;-58
2022/12/19 10:19:08;;;;;;;2.70;0.80;;;;;;;16.88;34.98;101554.22;16129748;19;129517;-57
2022/12/19 10:24:45;;;;;;;1.67;0.90;;;;;;;16.88;35.18;101550.63;16121898;19;129815;-57
2022/12/19 10:30:31;;;;;;;1.67;0.73;;;;;;;16.85;34.95;101549.16;16128314;19;129596;-57
2022/12/19 10:36:00;;;;;;;1.33;0.60;;;;;;;16.85;34.90;101549.16;16125133;19;128891;-57
2022/12/19 10:41:27;;;;;;;1.02;0.73;;;;;;;16.84;34.75;101528.13;16122095;19;129039;-58
2022/12/19 10:46:51;;;;;;;3.22;0.70;;;;;;;16.84;35.12;101522.59;16124679;19;130058;-58
2022/12/19 10:52:14;;;;;;;1.63;0.68;;;;;;;16.82;35.06;101510.91;16132002;19;129263;-57
2022/12/19 10:57:36;;;;;;;2.33;0.60;;;;;;;16.83;35.06;101507.06;16143630;19;129927;-57
2022/12/19 11:03:14;;;;;;;1.35;0.70;;;;;;;16.84;35.20;101503.25;16138472;19;129172;-57
2022/12/19 11:08:39;;;;;;;1.92;0.88;;;;;;;16.82;35.22;101499.84;16137228;19;129343;-57
2022/12/19 11:14:27;;;;;;;1.17;0.50;;;;;;;16.84;35.44;101489.44;16139424;19;129872;-57
2022/12/19 11:20:18;;;;;;;1.03;0.60;;;;;;;16.83;35.08;101498.78;16138266;19;130672;-58
2022/12/19 11:26:05;;;;;;;1.10;0.55;;;;;;;16.83;35.34;101490.50;16136979;19;129697;-58
2022/12/19 11:31:47;;;;;;;0.80;0.50;;;;;;;16.81;35.31;101483.47;16138274;19;129159;-56
2022/12/19 11:37:38;;;;;;;1.23;0.77;;;;;;;16.81;34.95;101487.09;16138222;19;130039;-57
2022/12/19 11:43:12;;;;;;;0.98;0.60;;;;;;;16.84;35.49;101474.75;16136625;19;130418;-57
2022/12/19 11:49:12;;;;;;;1.73;0.80;;;;;;;16.82;35.23;101471.34;16136910;19;132216;-58
2022/12/19 11:54:44;;;;;;;2.17;0.50;;;;;;;16.80;35.36;101468.81;16138597;19;130584;-58
2022/12/19 12:00:19;;;;;;;1.08;0.50;;;;;;;16.82;35.24;101469.47;16136881;19;129261;-57
2022/12/19 12:05:46;;;;;;;1.02;0.50;;;;;;;16.80;35.29;101449.47;16134007;19;130621;-57
2022/12/19 12:11:22;;;;;;;1.42;0.60;;;;;;;16.80;35.22;101441.19;16133706;19;129651;-58
2022/12/19 12:17:21;;;;;;;1.40;0.60;;;;;;;16.81;35.17;101440.13;16131319;19;129321;-57
2022/12/19 12:23:20;;;;;;;1.42;0.60;;;;;;;16.82;35.41;101449.25;16134797;19;129538;-57
2022/12/19 12:29:16;;;;;;;1.88;0.40;;;;;;;16.82;35.08;101433.53;16131473;19;130708;-58
2022/12/19 12:35:18;;;;;;;1.35;0.50;;;;;;;16.81;35.16;101430.97;16132301;19;130491;-58
2022/12/19 12:41:19;;;;;;;1.30;0.50;;;;;;;16.82;35.30;101422.47;16131575;19;129413;-58
2022/12/19 12:46:47;;;;;;;1.17;0.57;;;;;;;16.80;35.45;101410.78;16131130;19;129192;-57
2022/12/19 12:52:15;;;;;;;1.65;0.50;;;;;;;16.81;35.35;101403.34;16131632;19;129762;-57
2022/12/19 12:57:39;;;;;;;1.40;0.60;;;;;;;16.80;35.07;101391.44;16131213;19;129432;-57
2022/12/19 13:03:08;;;;;;;1.85;0.50;;;;;;;16.79;35.50;101375.94;16129115;19;129358;-58
2022/12/19 13:08:36;;;;;;;1.15;0.47;;;;;;;16.80;35.31;101374.88;16129953;19;129168;-57
2022/12/19 13:13:58;;;;;;;3.42;0.70;;;;;;;16.79;35.36;101362.13;16124886;19;129627;-58
2022/12/19 13:19:25;;;;;;;1.00;0.47;;;;;;;16.80;35.43;101369.34;16127222;19;130224;-58
2022/12/19 13:24:54;;;;;;;0.50;0.40;;;;;;;16.80;35.36;101390.63;16128814;19;129385;-58
2022/12/19 13:30:17;;;;;;;0.65;0.40;;;;;;;16.79;35.38;101384.22;16127703;19;129344;-57
2022/12/19 13:35:39;;;;;;;0.85;0.50;;;;;;;16.77;35.65;101381.69;16127266;19;130728;-57
2022/12/19 13:47:42;;;;;;;0.93;0.55;;;;;;;16.75;35.49;101355.34;16118917;19;130239;-57
2022/12/19 13:53:18;;;;;;;1.27;0.60;;;;;;;16.76;35.73;101351.50;16118132;19;130386;-57
2022/12/19 13:59:03;;;;;;;3.00;0.70;;;;;;;16.74;35.24;101342.59;16115694;19;129748;-57
2022/12/19 14:04:30;;;;;;;0.90;0.50;;;;;;;16.74;35.49;101345.34;16114623;19;129473;-57
2022/12/19 14:09:53;;;;;;;0.55;0.40;;;;;;;16.73;35.60;101332.63;16117574;19;129329;-57
2022/12/19 14:15:38;;;;;;;2.20;0.43;;;;;;;16.73;35.69;101321.59;16119427;19;129356;-58
2022/12/19 14:21:20;;;;;;;0.83;0.50;;;;;;;16.74;35.27;101314.97;16124625;19;129626;-59
2022/12/19 14:27:09;;;;;;;0.55;0.40;;;;;;;16.74;35.72;101320.50;16133710;19;129396;-59
2022/12/19 14:32:53;;;;;;;1.40;0.40;;;;;;;16.72;35.42;101325.41;16138333;19;129343;-58
2022/12/19 14:38:35;;;;;;;1.25;0.60;;;;;;;16.71;35.43;101318.19;16137697;19;130824;-58
2022/12/19 14:44:18;;;;;;;1.55;0.45;;;;;;;16.71;35.43;101307.16;16138553;19;129317;-58
2022/12/19 14:50:00;;;;;;;1.00;0.50;;;;;;;16.70;35.45;101324.78;16135859;19;130408;-58
2022/12/19 14:55:45;;;;;;;0.50;0.40;;;;;;;16.70;35.26;101353.25;16137093;19;130032;-59
2022/12/19 15:01:33;;;;;;;1.02;0.50;;;;;;;16.70;35.40;101358.78;16135075;19;129363;-58
2022/12/19 15:06:58;;;;;;;0.80;0.50;;;;;;;16.71;35.38;101348.59;16137870;19;129240;-58
2022/12/19 15:18:45;;;;;;;0.93;0.40;;;;;;;16.68;35.38;101340.75;16134769;19;129361;-58
2022/12/19 15:24:07;;;;;;;1.98;0.68;;;;;;;16.70;35.41;101346.91;16133615;19;130175;-55
2022/12/19 15:29:31;;;;;;;2.65;0.70;;;;;;;16.69;35.35;101347.97;16133421;19;129756;-58
2022/12/19 15:34:54;;;;;;;0.90;0.50;;;;;;;16.68;35.60;101343.50;16131359;19;131272;-58
2022/12/19 15:40:17;;;;;;;3.55;0.70;;;;;;;16.69;35.44;101350.72;16134852;19;129646;-58
2022/12/19 15:45:38;;;;;;;5.47;0.60;;;;;;;16.69;35.34;101347.97;16134814;19;134709;-58
2022/12/19 15:51:00;;;;;;;0.80;0.40;;;;;;;16.68;35.34;101349.84;16134574;19;129991;-57
2022/12/19 15:56:27;;;;;;;1.88;0.40;;;;;;;16.69;35.25;101359.00;16133999;19;129610;-58
2022/12/19 16:01:50;;;;;;;1.60;0.40;;;;;;;16.68;35.59;101366.44;16132962;19;130465;-58
2022/12/19 16:07:22;;;;;;;2.05;0.52;;;;;;;16.69;35.30;101370.06;16134385;19;129545;-58
2022/12/19 16:12:49;;;;;;;3.83;0.65;;;;;;;16.67;35.38;101361.16;16131389;19;129627;-58
2022/12/19 16:18:12;;;;;;;2.80;0.63;;;;;;;16.66;35.65;101349.25;16131104;19;129273;-57
2022/12/19 16:23:35;;;;;;;2.25;0.75;;;;;;;16.67;35.59;101344.56;16131147;19;129827;-54
2022/12/19 16:28:57;;;;;;;3.20;0.60;;;;;;;16.65;35.46;101330.97;16135023;19;129426;-58
2022/12/19 16:34:24;;;;;;;5.63;0.80;;;;;;;16.66;35.66;101317.97;16128375;19;129599;-58
2022/12/19 16:39:45;;;;;;;1.73;0.70;;;;;;;16.63;35.50;101336.69;16128276;19;129297;-59
2022/12/19 16:45:17;;;;;;;4.80;0.85;;;;;;;16.66;35.78;101335.44;16125417;19;129537;-58
2022/12/19 16:50:38;;;;;;;5.40;1.30;;;;;;;16.64;35.82;101326.50;16124976;19;133546;-57
2022/12/19 16:56:02;;;;;;;3.20;0.93;;;;;;;16.65;35.73;101322.66;16129429;19;129798;-57
2022/12/19 17:01:24;;;;;;;2.28;0.88;;;;;;;16.65;35.72;101328.19;16128450;19;129195;-58
2022/12/19 17:06:48;;;;;;;7.25;0.95;;;;;;;16.66;35.63;101334.56;16129107;19;130833;-58
2022/12/19 17:12:16;;;;;;;4.13;0.90;;;;;;;16.65;35.68;101333.72;16128906;19;130686;-56
2022/12/19 17:17:38;;;;;;;2.38;0.90;;;;;;;16.61;35.55;101341.63;16130519;19;129391;-59
2022/12/19 17:23:00;;;;;;;5.68;0.98;;;;;;;16.62;35.56;101342.44;16123378;19;129805;-58
2022/12/19 17:28:22;;;;;;;3.85;0.80;;;;;;;16.61;35.97;101322.28;16126932;19;129861;-59
2022/12/19 17:33:44;;;;;;;7.22;0.95;;;;;;;16.62;35.91;101312.88;16126102;19;130607;-58
2022/12/19 17:39:25;;;;;;;3.90;0.82;;;;;;;16.65;35.83;101310.75;16124710;19;130608;-58
2022/12/19 17:44:46;;;;;;;5.82;0.80;;;;;;;16.63;36.13;101317.34;16125333;19;129706;-57
2022/12/19 17:50:20;;;;;;;5.63;0.80;;;;;;;16.63;36.47;101303.53;16125230;19;129338;-57
2022/12/19 17:55:42;;;;;;;4.85;1.00;;;;;;;16.85;36.32;101305.97;16124221;19;129322;-56
2022/12/19 18:01:03;;;;;;;9.88;0.90;;;;;;;17.32;36.29;101310.22;16126243;19;129650;-56
2022/12/19 18:06:26;;;;;;;3.80;0.70;;;;;;;17.88;35.59;101301.97;16124353;19;129688;-57
2022/12/19 18:11:49;;;;;;;5.75;0.98;;;;;;;18.40;34.93;101321.75;16125359;19;129599;-56
2022/12/19 18:17:14;;;;;;;4.68;0.88;;;;;;;18.81;34.72;101297.03;16125465;19;129594;-58
2022/12/19 18:22:36;;;;;;;9.35;1.20;;;;;;;19.16;34.27;101310.09;16126520;19;130216;-58
2022/12/19 18:28:01;;;;;;;9.33;0.87;;;;;;;19.47;33.93;101312.75;16123446;19;129654;-58
2022/12/19 18:33:23;;;;;;;10.23;1.27;;;;;;;19.64;34.20;101319.28;16117627;19;129917;-59
2022/12/19 18:38:47;;;;;;;14.18;1.10;;;;;;;19.84;33.70;101329.13;16120686;19;129392;-59
2022/12/19 18:44:09;;;;;;;10.48;1.45;;;;;;;19.89;33.74;101337.56;16122828;19;131147;-56
2022/12/19 18:49:33;;;;;;;5.63;1.20;;;;;;;19.81;33.87;101335.19;16125703;19;129396;-59
2022/12/19 18:54:55;;;;;;;11.85;1.05;;;;;;;19.64;34.14;101329.53;16123858;19;129289;-59
2022/12/19 19:00:23;;;;;;;8.63;1.40;;;;;;;19.48;34.55;101314.47;16126747;19;129409;-59
2022/12/19 19:05:45;;;;;;;7.55;1.30;;;;;;;19.32;34.34;101322.41;16122096;19;129778;-53
2022/12/19 19:11:08;;;;;;;14.27;1.75;;;;;;;19.15;34.71;101332.53;16124332;19;129704;-57
2022/12/19 19:16:30;;;;;;;13.15;1.30;;;;;;;18.97;34.65;101320.44;16138188;19;129568;-56
2022/12/19 19:21:51;;;;;;;16.85;1.85;;;;;;;18.90;34.77;101320.56;16135383;19;129637;-52
2022/12/19 19:27:13;;;;;;;16.10;2.13;;;;;;;18.96;34.90;101315.16;16134672;19;129504;-54
2022/12/19 19:32:37;;;;;;;19.38;1.60;;;;;;;19.19;34.84;101323.50;16134604;19;130771;-54
2022/12/19 19:38:05;;;;;;;23.63;2.33;;;;;;;19.54;34.83;101324.59;16134669;19;129853;-54
2022/12/19 19:43:32;;;;;;;17.50;1.30;;;;;;;19.92;34.35;101314.88;16132760;19;130011;-54
2022/12/19 19:48:56;;;;;;;9.95;1.55;;;;;;;20.26;34.30;101331.69;16132547;19;129532;-55
2022/12/19 19:54:17;;;;;;;13.85;1.15;;;;;;;20.52;33.82;101323.84;16134158;19;129635;-58
2022/12/19 19:59:39;;;;;;;11.15;1.25;;;;;;;20.77;33.44;101331.00;16134266;19;129069;-54
2022/12/19 20:05:01;;;;;;;14.18;1.88;;;;;;;20.93;33.57;101339.59;16132477;19;130164;-54
2022/12/19 20:10:23;;;;;;;14.45;1.25;;;;;;;21.01;33.60;101337.22;16136200;19;129508;-55
2022/12/19 20:15:44;;;;;;;9.75;0.85;;;;;;;21.07;33.11;101349.28;16132949;19;129860;-53
2022/12/19 20:21:11;;;;;;;10.55;1.00;;;;;;;21.08;33.41;101352.94;16131261;19;129588;-51
2022/12/19 20:26:34;;;;;;;11.50;1.13;;;;;;;21.02;33.58;101363.94;16132858;19;129246;-54
2022/12/19 20:31:56;;;;;;;4.72;0.88;;;;;;;21.00;33.38;101351.41;16132274;19;129520;-57
2022/12/19 20:37:18;;;;;;;3.30;0.70;;;;;;;21.06;33.23;101361.50;16131117;19;129470;-55
2022/12/19 20:42:40;;;;;;;9.50;1.25;;;;;;;21.11;33.53;101358.00;16130853;19;129734;-57
2022/12/19 20:48:01;;;;;;;9.45;0.60;;;;;;;21.11;33.14;101364.38;16131240;19;129679;-57
2022/12/19 20:53:23;;;;;;;7.20;1.15;;;;;;;21.06;33.65;101361.50;16127541;19;130392;-54
2022/12/19 20:58:45;;;;;;;4.18;0.80;;;;;;;20.95;33.62;101354.09;16129284;19;131363;-54
2022/12/19 21:04:07;;;;;;;2.80;0.80;;;;;;;20.82;33.31;101350.53;16129707;19;129912;-57
2022/12/19 21:09:29;;;;;;;14.95;1.40;;;;;;;20.69;33.57;101343.34;16130787;19;129579;-53
2022/12/19 21:14:51;;;;;;;5.70;1.20;;;;;;;20.56;33.52;101346.44;16122066;19;130807;-56
2022/12/19 21:20:14;;;;;;;13.38;1.20;;;;;;;20.41;33.98;101352.53;16120716;19;129915;-57
2022/12/19 21:25:36;;;;;;;18.38;1.48;;;;;;;20.27;34.09;101366.72;16125832;19;130159;-59
2022/12/19 21:31:10;;;;;;;19.65;1.70;;;;;;;20.16;34.32;101364.84;16123754;19;129627;-58
2022/12/19 21:36:32;;;;;;;24.00;2.47;;;;;;;20.02;34.81;101375.34;16124933;19;129552;-56
2022/12/19 21:41:53;;;;;;;18.55;2.30;;;;;;;19.88;34.88;101369.19;16124319;19;130709;-59
2022/12/19 21:47:16;;;;;;;22.20;1.85;;;;;;;19.76;34.86;101348.94;16129537;19;130900;-58
2022/12/19 21:52:39;;;;;;;14.73;1.40;;;;;;;19.62;35.05;101348.38;16130045;19;129762;-61
2022/12/19 21:58:00;;;;;;;13.07;1.25;;;;;;;19.49;35.33;101350.31;16133957;19;129693;-58
2022/12/19 22:03:22;;;;;;;13.93;1.30;;;;;;;19.38;35.42;101346.44;16133243;19;129729;-59
2022/12/19 22:08:45;;;;;;;17.90;1.50;;;;;;;19.27;35.21;101338.97;16134809;19;129616;-58
2022/12/19 22:14:07;;;;;;;14.43;1.83;;;;;;;19.16;35.02;101317.59;16134873;19;129118;-58
2022/12/19 22:19:29;;;;;;;16.13;1.45;;;;;;;19.07;35.39;101315.19;16135004;19;131061;-57
2022/12/19 22:24:51;;;;;;;5.07;0.90;;;;;;;19.00;35.51;101313.59;16134311;19;129502;-57
2022/12/19 22:30:13;;;;;;;12.25;1.40;;;;;;;;;;16123590;19;129441;-58
2022/12/19 22:35:34;;;;;;;9.80;1.30;;;;;;;18.83;35.18;101324.53;16120571;19;129868;-58
2022/12/19 22:41:02;;;;;;;10.15;1.23;;;;;;;18.76;35.38;101331.03;16126976;19;129718;-57
2022/12/19 22:46:29;;;;;;;10.07;1.08;;;;;;;18.70;35.28;101329.22;16132501;19;129707;-58
2022/12/19 22:51:51;;;;;;;8.30;0.90;;;;;;;18.62;35.32;101312.91;16147187;19;129459;-58
2022/12/19 22:57:14;;;;;;;5.75;1.20;;;;;;;18.55;35.31;101317.72;16140475;19;129375;-57
2022/12/19 23:02:42;;;;;;;5.53;1.10;;;;;;;18.50;35.38;101336.97;16145416;19;129695;-58
2022/12/19 23:08:04;;;;;;;4.72;0.70;;;;;;;18.43;35.36;101325.97;16141779;19;129324;-54
2022/12/19 23:13:26;;;;;;;2.50;0.95;;;;;;;18.37;35.65;101300.03;16139249;19;129444;-58
2022/12/19 23:18:48;;;;;;;5.55;0.90;;;;;;;18.34;35.48;101305.19;16140064;19;130990;-57
2022/12/19 23:24:11;;;;;;;6.20;0.80;;;;;;;18.28;35.85;101299.50;16137163;19;129402;-58
2022/12/19 23:29:32;;;;;;;3.47;0.73;;;;;;;18.25;35.81;101299.13;16143649;19;129298;-58
2022/12/19 23:34:54;;;;;;;3.38;0.80;;;;;;;18.20;35.78;101294.31;16141279;19;130455;-57
2022/12/19 23:40:16;;;;;;;3.75;0.60;;;;;;;18.18;35.69;101306.72;16137069;19;130579;-58
2022/12/19 23:45:38;;;;;;;6.22;0.70;;;;;;;18.14;35.80;101304.41;16136007;19;130637;-58
2022/12/19 23:51:02;;;;;;;1.27;0.68;;;;;;;18.11;35.49;101295.72;16133940;19;129433;-58
2022/12/19 23:56:27;;;;;;;2.53;0.60;;;;;;;18.10;35.78;101299.56;16131824;19;129582;-57
